Inuvik, Canada
Current Conditions -  °F | °C
As of 9:00 PM on Wednesday 17 Dec 2014 (Local Time) from CYEV Reporting Station
Light Snow Light Snow  
Wind Chill:   Ceiling: 1500
Heat Index:   Visibility: 15mi
Dew Point: -4°   Wind: 2mph
Humidity: 85%   Direction: 270°W
Pressure: 29.74"   Gusts: NA
Location:  68.36°N, 133.73°W
Report Text: CYEV 180400Z 27002KT 15SM -SN SCT009 OVC015 M18/M20 A2974 RMK ST3NS5 SLP081
Loading
Personal Weather Stations






























Interactive Weather Map New forecast layout! Learn more

10-Day Weather Forecast

Advertisements
Track Severe Weather on mobile